createdAt,value
2023-05-09T00:02:14.850Z,99887.10
2023-05-09T00:07:16.730Z,99891.67
2023-05-09T00:12:18.467Z,99888.36
2023-05-09T00:17:22.933Z,99890.69
2023-05-09T00:22:24.961Z,99886.73
2023-05-09T00:27:26.581Z,99884.96
2023-05-09T00:32:29.346Z,99882.84
2023-05-09T00:37:31.539Z,99877.84
2023-05-09T00:42:33.714Z,99869.38
2023-05-09T00:47:35.717Z,99871.29
2023-05-09T00:52:38.911Z,99861.72
2023-05-09T00:57:40.821Z,99858.45
2023-05-09T01:02:43.408Z,99855.20
2023-05-09T01:08:07.508Z,99848.96
2023-05-09T01:13:13.874Z,99847.29
2023-05-09T01:18:25.469Z,99844.45
2023-05-09T01:23:36.478Z,99838.78
2023-05-09T01:28:56.919Z,99836.62
2023-05-09T01:34:02.709Z,99834.11
2023-05-09T01:39:06.590Z,99836.27
2023-05-09T01:44:12.197Z,99837.13
2023-05-09T01:49:13.913Z,99832.10
2023-05-09T01:54:17.678Z,99833.16
2023-05-09T01:59:20.793Z,99830.55
2023-05-09T02:04:23.430Z,99828.24
2023-05-09T02:09:25.970Z,99826.21
2023-05-09T02:14:27.633Z,99826.34
2023-05-09T02:19:29.394Z,99825.20
2023-05-09T02:24:33.288Z,99817.17
2023-05-09T02:29:40.748Z,99811.51
2023-05-09T02:34:46.212Z,99810.77
2023-05-09T02:39:48.191Z,99807.80
2023-05-09T02:44:49.853Z,99805.90
2023-05-09T02:49:51.577Z,99811.88
2023-05-09T02:54:53.538Z,99810.23
2023-05-09T02:59:55.838Z,99813.29
2023-05-09T03:04:57.666Z,99811.77
2023-05-09T03:09:59.526Z,99810.23
2023-05-09T03:15:02.218Z,99807.34
2023-05-09T03:20:05.764Z,99807.45
2023-05-09T03:25:08.218Z,99806.79
2023-05-09T03:30:10.768Z,99810.42
2023-05-09T03:35:13.078Z,99809.25
2023-05-09T03:40:15.443Z,99810.74
2023-05-09T03:45:24.842Z,99809.88
2023-05-09T03:50:26.890Z,99813.06
2023-05-09T03:55:30.410Z,99816.16
2023-05-09T04:00:32.980Z,99813.90
2023-05-09T04:05:39.515Z,99815.38
2023-05-09T04:10:42.561Z,99810.18
2023-05-09T04:15:44.444Z,99805.51
2023-05-09T04:20:46.560Z,99801.83
2023-05-09T04:25:51.373Z,99793.97
2023-05-09T04:30:53.766Z,99787.39
2023-05-09T04:35:55.852Z,99786.56
2023-05-09T04:40:58.526Z,99787.49
2023-05-09T04:46:00.511Z,99783.33
2023-05-09T04:51:02.504Z,99780.48
2023-05-09T04:56:05.528Z,99781.48
2023-05-09T05:01:07.807Z,99779.55
2023-05-09T05:06:10.238Z,99776.33
2023-05-09T05:11:13.652Z,99770.90
2023-05-09T05:16:15.786Z,99776.68
2023-05-09T05:21:17.864Z,99776.27
2023-05-09T05:26:20.993Z,99767.52
2023-05-09T05:31:23.485Z,99770.77
2023-05-09T05:36:25.454Z,99767.39
2023-05-09T05:41:27.543Z,99767.05
2023-05-09T05:46:30.367Z,99763.82
2023-05-09T05:51:33.468Z,99767.19
2023-05-09T05:56:35.901Z,99764.08
2023-05-09T06:01:37.739Z,99765.26
2023-05-09T06:06:39.963Z,99758.58
2023-05-09T06:11:41.827Z,99753.96
2023-05-09T06:16:43.757Z,99758.18
2023-05-09T06:21:45.499Z,99741.29
2023-05-09T06:26:47.333Z,99737.42
2023-05-09T06:31:49.318Z,99737.09
2023-05-09T06:36:51.230Z,99727.75
2023-05-09T06:41:53.024Z,99728.75
2023-05-09T06:46:59.530Z,99720.31
2023-05-09T06:52:01.273Z,99715.73
2023-05-09T06:57:03.153Z,99723.25
2023-05-09T07:02:04.885Z,99711.58
2023-05-09T07:07:06.724Z,99704.42
2023-05-09T07:12:08.897Z,99707.45
2023-05-09T07:17:21.708Z,99705.95
2023-05-09T07:22:24.376Z,99695.93
2023-05-09T07:27:26.107Z,99688.74
2023-05-09T07:32:28.879Z,99688.20
2023-05-09T07:37:30.742Z,99689.08
2023-05-09T07:42:33.256Z,99686.42
2023-05-09T07:47:34.969Z,99683.10
2023-05-09T07:52:36.781Z,99681.20
2023-05-09T07:57:39.776Z,99669.40
2023-05-09T08:02:41.789Z,99674.10
2023-05-09T08:07:43.600Z,99670.79
2023-05-09T08:12:45.490Z,99652.63
2023-05-09T08:17:47.330Z,99646.17
2023-05-09T08:22:49.151Z,99647.00
2023-05-09T08:27:52.926Z,99645.85
2023-05-09T08:32:56.089Z,99635.64
2023-05-09T08:37:57.876Z,99636.34
2023-05-09T08:42:59.689Z,99630.63
2023-05-09T08:48:04.925Z,99622.82
2023-05-09T08:53:07.256Z,99626.10
2023-05-09T08:58:13.637Z,99627.05
2023-05-09T09:03:16.823Z,99623.17
2023-05-09T09:08:19.197Z,99624.83
2023-05-09T09:13:22.851Z,99626.77
2023-05-09T09:18:30.769Z,99624.92
2023-05-09T09:23:33.438Z,99626.75
2023-05-09T09:28:36.101Z,99622.18
2023-05-09T09:33:37.855Z,99610.61
2023-05-09T09:38:41.784Z,99609.49
2023-05-09T09:43:47.079Z,99608.42
2023-05-09T09:48:54.729Z,99603.00
2023-05-09T09:53:56.686Z,99611.81
2023-05-09T09:59:16.376Z,99597.70
2023-05-09T10:04:18.072Z,99591.89
2023-05-09T10:09:22.176Z,99591.05
2023-05-09T10:14:26.249Z,99589.46
2023-05-09T10:19:32.288Z,99585.40
2023-05-09T10:24:59.206Z,99587.46
2023-05-09T10:30:08.174Z,99582.67
2023-05-09T10:35:11.606Z,99570.55
2023-05-09T10:40:15.629Z,99566.11
2023-05-09T10:45:17.549Z,99564.59
2023-05-09T10:50:21.372Z,99561.05
2023-05-09T10:55:24.410Z,99545.86
2023-05-09T11:00:26.315Z,99543.98
2023-05-09T11:05:39.130Z,99534.29
2023-05-09T11:10:43.986Z,99535.39
2023-05-09T11:16:01.493Z,99536.40
2023-05-09T11:21:09.672Z,99527.08
2023-05-09T11:26:11.369Z,99525.72
2023-05-09T11:31:18.290Z,99506.35
2023-05-09T11:36:38.605Z,99494.69
2023-05-09T11:41:45.710Z,99490.05
2023-05-09T11:46:49.246Z,99498.63
2023-05-09T11:51:51.023Z,99488.96
2023-05-09T11:56:53.128Z,99473.48
2023-05-09T12:01:55.463Z,99465.75
2023-05-09T12:07:00.928Z,99454.79
2023-05-09T12:12:10.857Z,99449.13
2023-05-09T12:17:12.527Z,99441.85
2023-05-09T12:22:14.244Z,99442.78
2023-05-09T12:27:15.947Z,99437.05
2023-05-09T12:32:18.381Z,99425.21
2023-05-09T12:37:20.313Z,99417.53
2023-05-09T12:42:22.125Z,99411.64
2023-05-09T12:47:29.287Z,99418.19
2023-05-09T12:52:50.076Z,99411.70
2023-05-09T12:58:01.656Z,99398.80
2023-05-09T13:03:04.249Z,99396.90
2023-05-09T13:08:06.052Z,99391.72
2023-05-09T13:13:07.914Z,99387.69
2023-05-09T13:18:11.458Z,99385.95
2023-05-09T13:23:13.294Z,99391.33
2023-05-09T13:28:15.292Z,99369.74
2023-05-09T13:33:25.869Z,99356.58
2023-05-09T13:38:30.995Z,99349.55
2023-05-09T13:43:33.159Z,99353.20
2023-05-09T13:48:34.877Z,99348.53
2023-05-09T13:53:38.869Z,99339.33
2023-05-09T13:58:41.005Z,99327.55
2023-05-09T14:03:42.804Z,99321.80
2023-05-09T14:08:44.535Z,99317.75
2023-05-09T14:13:46.210Z,99310.35
2023-05-09T14:18:48.303Z,99302.30
2023-05-09T14:23:51.308Z,99296.59
2023-05-09T14:28:53.798Z,99298.39
2023-05-09T14:33:56.180Z,99292.92
2023-05-09T14:38:58.067Z,99291.94
2023-05-09T14:43:59.850Z,99289.69
2023-05-09T14:49:04.327Z,99281.95
2023-05-09T14:54:06.623Z,99281.97
2023-05-09T14:59:09.434Z,99274.11
2023-05-09T15:04:11.838Z,99264.16
2023-05-09T15:09:14.557Z,99266.33
2023-05-09T15:14:17.022Z,99260.98
2023-05-09T15:19:19.410Z,99247.52
2023-05-09T15:24:21.071Z,99244.14
2023-05-09T15:29:22.883Z,99241.23
2023-05-09T15:34:25.278Z,99233.01
2023-05-09T15:39:27.220Z,99228.73
2023-05-09T15:44:28.983Z,99229.98
2023-05-09T15:49:30.750Z,99228.95
2023-05-09T15:54:34.002Z,99227.78
2023-05-09T15:59:36.748Z,99218.61
2023-05-09T16:04:38.757Z,99209.64
2023-05-09T16:09:40.435Z,99208.20
2023-05-09T16:14:42.430Z,99198.05
2023-05-09T16:19:44.317Z,99204.99
2023-05-09T16:24:46.511Z,99200.32
2023-05-09T16:29:48.177Z,99199.33
2023-05-09T16:34:50.399Z,99195.20
2023-05-09T16:39:52.061Z,99190.61
2023-05-09T16:44:55.612Z,99177.41
2023-05-09T16:49:57.407Z,99171.82
2023-05-09T16:54:59.522Z,99169.03
2023-05-09T17:00:01.277Z,99169.89
2023-05-09T17:05:04.335Z,99164.85
2023-05-09T17:10:06.725Z,99159.29
2023-05-09T17:15:11.791Z,99156.58
2023-05-09T17:20:13.830Z,99153.45
2023-05-09T17:25:15.524Z,99150.02
2023-05-09T17:30:18.815Z,99147.98
2023-05-09T17:35:23.020Z,99149.49
2023-05-09T17:40:25.178Z,99145.06
2023-05-09T17:45:26.888Z,99140.84
2023-05-09T17:50:29.187Z,99142.55
2023-05-09T17:55:31.005Z,99144.09
2023-05-09T18:00:32.731Z,99144.56
2023-05-09T18:05:34.735Z,99145.17
2023-05-09T18:10:36.428Z,99139.02
2023-05-09T18:15:38.547Z,99136.36
2023-05-09T18:20:40.389Z,99134.36
2023-05-09T18:25:42.298Z,99130.94
2023-05-09T18:30:44.214Z,99127.03
2023-05-09T18:35:46.082Z,99135.08
2023-05-09T18:40:48.498Z,99135.91
2023-05-09T18:45:51.958Z,99137.80
2023-05-09T18:50:53.981Z,99142.18
2023-05-09T18:55:56.941Z,99144.68
2023-05-09T19:00:59.000Z,99139.90
2023-05-09T19:06:00.949Z,99136.01
2023-05-09T19:11:02.708Z,99136.02
2023-05-09T19:16:07.048Z,99139.70
2023-05-09T19:21:09.492Z,99138.03
2023-05-09T19:26:11.137Z,99128.92
2023-05-09T19:31:14.294Z,99129.63
2023-05-09T19:36:17.750Z,99124.70
2023-05-09T19:41:19.458Z,99129.27
2023-05-09T19:46:22.252Z,99128.09
2023-05-09T19:51:23.985Z,99125.17
2023-05-09T19:56:25.729Z,99127.18
2023-05-09T20:01:28.653Z,99124.96
2023-05-09T20:06:30.643Z,99124.20
2023-05-09T20:11:32.457Z,99124.95
2023-05-09T20:16:34.705Z,99125.44
2023-05-09T20:21:36.543Z,99121.77
2023-05-09T20:26:38.398Z,99123.27
2023-05-09T20:31:41.494Z,99125.88
2023-05-09T20:36:49.216Z,99127.80
2023-05-09T20:41:52.145Z,99125.85
2023-05-09T20:46:53.881Z,99128.89
2023-05-09T20:51:55.835Z,99133.19
2023-05-09T20:56:57.438Z,99132.67
2023-05-09T21:01:59.270Z,99132.70
2023-05-09T21:07:01.062Z,99127.14
2023-05-09T21:12:06.118Z,99132.00
2023-05-09T21:17:08.758Z,99132.84
2023-05-09T21:22:10.854Z,99128.59
2023-05-09T21:27:12.610Z,99127.33
2023-05-09T21:32:17.047Z,99130.57
2023-05-09T21:37:18.721Z,99128.16
2023-05-09T21:42:41.117Z,99126.04
2023-05-09T21:47:46.885Z,99123.83
2023-05-09T21:52:50.462Z,99122.04
2023-05-09T21:57:52.189Z,99125.55
2023-05-09T22:02:53.918Z,99124.16
2023-05-09T22:07:55.777Z,99125.45
2023-05-09T22:12:57.601Z,99122.77
2023-05-09T22:17:59.430Z,99119.44
2023-05-09T22:23:01.553Z,99120.13
2023-05-09T22:28:04.006Z,99112.25
2023-05-09T22:33:05.820Z,99109.27
2023-05-09T22:38:07.568Z,99107.13
2023-05-09T22:43:10.560Z,99106.14
2023-05-09T22:48:12.234Z,99100.20
2023-05-09T22:53:13.998Z,99101.98
2023-05-09T22:58:16.255Z,99100.29
2023-05-09T23:03:18.026Z,99098.27
2023-05-09T23:08:19.827Z,99097.92
2023-05-09T23:13:43.029Z,99093.58
2023-05-09T23:18:44.732Z,99090.91
2023-05-09T23:23:46.651Z,99087.17
2023-05-09T23:28:48.359Z,99081.54
2023-05-09T23:33:50.089Z,99083.36
2023-05-09T23:38:52.977Z,99076.09
2023-05-09T23:43:57.997Z,99080.91
2023-05-09T23:49:01.213Z,99075.35
2023-05-09T23:54:03.194Z,99072.76
2023-05-09T23:59:04.889Z,99070.22
